createdAt,value
2022-08-05T00:00:50.206Z,4.90
2022-08-05T00:06:04.777Z,4.73
2022-08-05T00:11:23.927Z,4.47
2022-08-05T00:16:36.281Z,6.07
2022-08-05T00:21:39.225Z,4.47
2022-08-05T00:26:51.755Z,4.67
2022-08-05T00:32:12.233Z,7.63
2022-08-05T00:37:17.321Z,5.50
2022-08-05T00:42:36.887Z,5.50
2022-08-05T00:47:56.676Z,5.22
2022-08-05T00:53:03.284Z,5.55
2022-08-05T00:58:14.290Z,6.27
2022-08-05T01:03:23.023Z,5.22
2022-08-05T01:08:40.661Z,5.53
2022-08-05T01:14:28.258Z,5.83
2022-08-05T01:20:00.949Z,4.73
2022-08-05T01:25:22.668Z,4.95
2022-08-05T01:30:33.573Z,5.20
2022-08-05T01:35:51.215Z,5.27
2022-08-05T01:40:59.080Z,4.72
2022-08-05T01:46:06.975Z,4.90
2022-08-05T01:51:19.546Z,4.27
2022-08-05T01:58:10.298Z,7.88
2022-08-05T02:01:48.464Z,6.70
2022-08-05T02:06:51.897Z,5.67
2022-08-05T02:12:07.121Z,6.05
2022-08-05T02:18:15.187Z,6.20
2022-08-05T02:22:43.878Z,6.87
2022-08-05T02:27:58.272Z,6.03
2022-08-05T02:33:03.412Z,7.53
2022-08-05T02:38:06.198Z,6.25
2022-08-05T02:43:13.248Z,7.37
2022-08-05T02:48:18.366Z,7.25
2022-08-05T02:53:22.068Z,5.60
2022-08-05T02:58:26.804Z,6.47
2022-08-05T03:03:33.839Z,5.07
2022-08-05T03:08:53.545Z,6.00
2022-08-05T03:14:03.203Z,5.33
2022-08-05T03:19:17.019Z,4.57
2022-08-05T03:24:29.993Z,5.30
2022-08-05T03:29:44.485Z,5.78
2022-08-05T03:34:50.542Z,6.10
2022-08-05T03:40:01.193Z,6.28
2022-08-05T03:45:21.611Z,7.75
2022-08-05T03:50:25.837Z,7.03
2022-08-05T03:56:09.851Z,5.90
2022-08-05T04:00:58.131Z,7.38
2022-08-05T04:06:03.593Z,7.80
2022-08-05T04:11:08.743Z,5.35
2022-08-05T04:16:14.267Z,7.28
2022-08-05T04:22:05.864Z,7.60
2022-08-05T04:26:40.584Z,6.90
2022-08-05T04:31:43.729Z,6.28
2022-08-05T04:36:50.224Z,5.40
2022-08-05T04:41:53.113Z,7.23
2022-08-05T04:46:59.123Z,10.88
2022-08-05T04:52:01.752Z,5.43
2022-08-05T04:57:04.465Z,11.40
2022-08-05T05:02:36.794Z,5.60
2022-08-05T05:07:32.152Z,7.38
2022-08-05T05:12:36.804Z,7.33
2022-08-05T05:17:55.916Z,11.70
2022-08-05T05:23:05.388Z,8.05
2022-08-05T05:28:11.957Z,11.90
2022-08-05T05:33:17.022Z,10.93
2022-08-05T05:38:22.185Z,8.30
2022-08-05T05:43:56.938Z,7.63
2022-08-05T05:48:52.328Z,6.83
2022-08-05T05:53:59.582Z,7.72
2022-08-05T05:59:07.650Z,10.63
2022-08-05T06:04:12.655Z,6.77
2022-08-05T06:09:17.621Z,7.27
2022-08-05T06:14:29.009Z,6.22
2022-08-05T06:19:35.422Z,7.03
2022-08-05T06:24:48.141Z,7.97
2022-08-05T06:30:05.950Z,8.60
2022-08-05T06:35:15.476Z,7.60
2022-08-05T06:40:35.862Z,9.07
2022-08-05T06:46:06.879Z,7.68
2022-08-05T06:51:09.319Z,6.90
2022-08-05T06:56:26.463Z,7.53
2022-08-05T07:01:32.308Z,5.93
2022-08-05T07:06:35.512Z,6.90
2022-08-05T07:11:39.836Z,5.85
2022-08-05T07:17:58.981Z,7.23
2022-08-05T07:22:15.819Z,5.30
2022-08-05T07:27:18.591Z,6.07
2022-08-05T07:32:26.079Z,5.30
2022-08-05T07:37:37.473Z,6.38
2022-08-05T07:42:42.091Z,6.60
2022-08-05T07:47:46.656Z,5.83
2022-08-05T07:52:49.596Z,7.13
2022-08-05T07:58:02.070Z,6.07
2022-08-05T08:03:15.983Z,4.70
2022-08-05T08:08:19.929Z,5.57
2022-08-05T08:13:29.069Z,6.63
2022-08-05T08:18:32.059Z,4.90
2022-08-05T08:24:02.013Z,7.03
2022-08-05T08:29:09.691Z,6.55
2022-08-05T08:34:30.521Z,6.55
2022-08-05T08:46:15.601Z,4.37
2022-08-05T08:52:02.032Z,5.43
2022-08-05T08:56:47.573Z,5.65
2022-08-05T09:07:19.642Z,9.95
2022-08-05T09:12:32.021Z,7.18
2022-08-05T09:17:43.144Z,6.73
2022-08-05T09:23:07.761Z,5.28
2022-08-05T09:28:24.418Z,8.02
2022-08-05T09:33:48.043Z,8.90
2022-08-05T09:38:57.531Z,4.87
2022-08-05T09:44:00.401Z,4.50
2022-08-05T09:49:19.567Z,3.38
2022-08-05T09:54:33.381Z,3.53
2022-08-05T09:59:37.150Z,2.88
2022-08-05T10:04:41.153Z,6.63
2022-08-05T10:10:14.362Z,5.03
2022-08-05T10:15:20.934Z,2.70
2022-08-05T10:20:24.368Z,2.75
2022-08-05T10:25:28.021Z,3.37
2022-08-05T10:31:20.588Z,3.03
2022-08-05T10:35:59.763Z,3.78
2022-08-05T10:41:05.859Z,5.45
2022-08-05T10:46:11.845Z,3.50
2022-08-05T10:51:21.705Z,3.90
2022-08-05T10:56:30.217Z,5.13
2022-08-05T11:01:54.836Z,4.47
2022-08-05T11:07:06.863Z,3.42
2022-08-05T11:12:24.947Z,4.55
2022-08-05T11:17:57.031Z,3.70
2022-08-05T11:22:53.945Z,3.37
2022-08-05T11:28:00.785Z,3.25
2022-08-05T11:33:34.621Z,3.90
2022-08-05T11:38:50.966Z,4.07
2022-08-05T11:44:05.963Z,3.60
2022-08-05T11:49:15.416Z,4.10
2022-08-05T11:54:33.489Z,4.63
2022-08-05T11:59:41.264Z,4.75
2022-08-05T12:04:58.996Z,3.50
2022-08-05T12:10:09.461Z,3.20
2022-08-05T12:15:35.957Z,3.07
2022-08-05T12:20:41.632Z,3.42
2022-08-05T12:25:56.882Z,3.33
2022-08-05T12:31:01.932Z,5.30
2022-08-05T12:36:08.627Z,2.88
2022-08-05T12:41:14.050Z,5.05
2022-08-05T12:46:29.404Z,3.77
2022-08-05T12:52:12.982Z,5.50
2022-08-05T12:57:09.661Z,3.70
2022-08-05T13:02:27.359Z,3.50
2022-08-05T13:07:57.801Z,4.03
2022-08-05T13:12:58.628Z,6.07
2022-08-05T13:18:01.395Z,5.57
2022-08-05T13:23:07.286Z,2.90
2022-08-05T13:28:12.737Z,4.68
2022-08-05T13:34:21.710Z,4.55
2022-08-05T13:38:42.950Z,2.97
2022-08-05T13:43:55.157Z,3.80
2022-08-05T13:49:00.638Z,4.03
2022-08-05T13:54:03.710Z,3.00
2022-08-05T13:59:19.756Z,4.13
2022-08-05T14:04:41.795Z,4.50
2022-08-05T14:09:46.774Z,3.58
2022-08-05T14:14:52.898Z,2.60
2022-08-05T14:20:00.970Z,2.97
2022-08-05T14:25:21.688Z,3.40
2022-08-05T14:30:26.577Z,3.60
2022-08-05T14:35:37.088Z,3.83
2022-08-05T14:40:51.951Z,4.45
2022-08-05T14:45:54.593Z,4.90
2022-08-05T14:50:57.206Z,3.87
2022-08-05T14:56:00.214Z,4.15
2022-08-05T15:01:02.943Z,3.28
2022-08-05T15:06:08.295Z,4.00
2022-08-05T15:11:16.089Z,3.30
2022-08-05T15:16:19.494Z,3.22
2022-08-05T15:21:24.817Z,6.10
2022-08-05T15:26:33.071Z,4.75
2022-08-05T15:31:35.590Z,5.85
2022-08-05T15:36:38.732Z,4.40
2022-08-05T15:41:57.474Z,3.37
2022-08-05T15:47:04.498Z,4.60
2022-08-05T15:52:16.319Z,3.72
2022-08-05T15:57:21.445Z,3.83
2022-08-05T16:02:25.631Z,3.92
2022-08-05T16:07:30.238Z,4.25
2022-08-05T16:12:32.744Z,3.80
2022-08-05T16:17:35.254Z,3.85
2022-08-05T16:22:37.902Z,6.07
2022-08-05T16:27:59.830Z,3.90
2022-08-05T16:33:03.605Z,4.20
2022-08-05T16:38:18.777Z,3.90
2022-08-05T16:43:30.341Z,5.43
2022-08-05T16:48:33.899Z,4.87
2022-08-05T16:54:04.706Z,4.68
2022-08-05T16:59:08.080Z,7.18
2022-08-05T17:04:10.896Z,7.73
2022-08-05T17:09:17.525Z,3.22
2022-08-05T17:14:22.304Z,5.10
2022-08-05T17:19:37.269Z,4.43
2022-08-05T17:24:45.319Z,4.57
2022-08-05T17:29:59.534Z,9.38
2022-08-05T17:35:04.019Z,8.20
2022-08-05T17:40:10.254Z,10.73
2022-08-05T17:45:20.468Z,6.45
2022-08-05T17:50:30.134Z,8.60
2022-08-05T17:55:37.146Z,10.20
2022-08-05T18:00:45.283Z,6.95
2022-08-05T18:05:53.289Z,5.82
2022-08-05T18:10:56.245Z,10.10
2022-08-05T18:15:59.831Z,6.73
2022-08-05T18:21:03.348Z,7.22
2022-08-05T18:26:06.306Z,10.07
2022-08-05T18:31:11.086Z,10.13
2022-08-05T18:36:15.376Z,6.38
2022-08-05T18:41:56.093Z,8.70
2022-08-05T18:46:43.069Z,7.20
2022-08-05T18:52:08.809Z,5.78
2022-08-05T18:57:14.989Z,3.92
2022-08-05T19:02:28.101Z,5.10
2022-08-05T19:07:46.060Z,4.60
2022-08-05T19:12:49.684Z,8.48
2022-08-05T19:17:59.113Z,10.82
2022-08-05T19:24:04.208Z,5.27
2022-08-05T19:28:35.126Z,4.32
2022-08-05T19:33:48.339Z,7.82
2022-08-05T19:39:06.376Z,5.33
2022-08-05T19:44:13.804Z,7.65
2022-08-05T19:49:17.636Z,8.88
2022-08-05T19:54:25.490Z,8.83
2022-08-05T19:59:54.799Z,9.23
2022-08-05T20:04:58.446Z,7.50
2022-08-05T20:10:02.561Z,6.15
2022-08-05T20:15:15.971Z,7.17
2022-08-05T20:20:43.394Z,10.50
2022-08-05T20:25:47.501Z,9.98
2022-08-05T20:30:51.790Z,12.97
2022-08-05T20:35:56.219Z,8.57
2022-08-05T20:41:00.872Z,6.93
2022-08-05T20:46:07.415Z,8.17
2022-08-05T20:51:09.999Z,9.33
2022-08-05T20:56:13.100Z,9.27
2022-08-05T21:01:15.715Z,7.63
2022-08-05T21:06:27.601Z,6.17
2022-08-05T21:12:10.962Z,5.15
2022-08-05T21:16:53.968Z,5.20
2022-08-05T21:21:56.480Z,5.53
2022-08-05T21:26:59.026Z,5.07
2022-08-05T21:32:03.558Z,9.25
2022-08-05T21:37:09.179Z,4.03
2022-08-05T21:42:41.080Z,4.80
2022-08-05T21:47:56.100Z,4.15
2022-08-05T21:52:59.068Z,6.32
2022-08-05T21:58:10.244Z,6.77
2022-08-05T22:03:15.294Z,4.45
2022-08-05T22:08:24.113Z,5.72
2022-08-05T22:14:19.715Z,6.23
2022-08-05T22:18:51.914Z,6.85
2022-08-05T22:24:39.567Z,9.23
2022-08-05T22:29:35.724Z,6.03
2022-08-05T22:34:38.228Z,7.03
2022-08-05T22:39:45.211Z,4.97
2022-08-05T22:44:56.489Z,8.43
2022-08-05T22:50:19.838Z,4.20
2022-08-05T22:55:56.571Z,4.43
2022-08-05T23:00:53.594Z,6.57
2022-08-05T23:05:59.961Z,8.37
2022-08-05T23:11:03.722Z,5.13
2022-08-05T23:16:06.341Z,5.20
2022-08-05T23:21:10.154Z,9.60
2022-08-05T23:26:12.892Z,5.00
2022-08-05T23:31:17.392Z,6.82
2022-08-05T23:36:20.456Z,5.90
2022-08-05T23:41:22.934Z,6.63
2022-08-05T23:46:26.579Z,16.58
2022-08-05T23:51:53.515Z,19.50
2022-08-05T23:57:03.441Z,21.00
